K-storm — V2DV8 — position and weather

sailwx.info

Track history (hours):
 
Tides and Currents Weather Stations Pressure Air Temp Water Temp Dewpoint Dewpoint Depression Visibility Wind Speed Wind Dir Waves Ship Positions

K-storm

Last reported at 2015-Aug-30 03:32 UTC. Time now 2015-Aug-30 12:01 UTC.
Position N 25°27' W 079°40'.

Length 139 m; draft 6.3 m.

Type: Ship. MMSI: 305350000.

Date/timePositionNaut miles runAvg speedWind from/ knotsBaromVisibWave heightAir tempDewpointWater temp
2015-Aug-30 03:32N 25°27' W 079°40'1313.2
2015-Aug-30 02:33N 25°40' W 079°42'1211.8
2015-Aug-30 01:33N 25°51' W 079°48'1212.0
2015-Aug-30 00:33N 25°59' W 079°57'1010.4
2015-Aug-29 23:33N 26°05' W 080°07'1 1.3
2015-Aug-29 22:28N 26°04' W 080°07'0 0.0
2015-Aug-29 21:31N 26°04' W 080°07'0 0.0
2015-Aug-29 20:31N 26°04' W 080°07'0 0.0
2015-Aug-29 19:30N 26°04' W 080°07'0 0.0
2015-Aug-29 18:33N 26°04' W 080°07'0 0.0
2015-Aug-29 17:32N 26°04' W 080°07'0 0.0
2015-Aug-29 16:32N 26°04' W 080°07'0 0.0
2015-Aug-29 15:31N 26°04' W 080°07'0 0.0
2015-Aug-29 14:31N 26°04' W 080°07'0 0.0
2015-Aug-29 13:31N 26°04' W 080°07'0 0.0
2015-Aug-29 12:33N 26°04' W 080°07'0 0.0
2015-Aug-29 11:33N 26°04' W 080°07'0 0.0
2015-Aug-29 10:32N 26°04' W 080°07'0 0.0
2015-Aug-29 09:32N 26°04' W 080°07'0 0.3
2015-Aug-29 08:34N 26°04' W 080°07'6 5.8
2015-Aug-29 07:34N 26°03' W 080°01'1716.9
2015-Aug-29 06:34N 25°50' W 079°48'1616.3
2015-Aug-29 05:34N 25°35' W 079°41'  
2015-Aug-23 08:34N 25°27' W 079°40'1414.1
2015-Aug-23 07:33N 25°41' W 079°42'1212.5
2015-Aug-23 06:33N 25°51' W 079°50'1313.0
2015-Aug-23 05:33N 26°01' W 080°00'7 7.3
2015-Aug-23 04:33N 26°05' W 080°07'1 1.0
2015-Aug-23 03:32N 26°04' W 080°07'0 0.0
2015-Aug-23 02:31N 26°04' W 080°07'0 0.0
2015-Aug-23 01:31N 26°04' W 080°07'0 0.0
2015-Aug-23 00:33N 26°04' W 080°07'0 0.0
2015-Aug-22 23:30N 26°04' W 080°07'0 0.0
2015-Aug-22 22:32N 26°04' W 080°07'0 0.0
2015-Aug-22 21:32N 26°04' W 080°07'0 0.0
2015-Aug-22 20:32N 26°04' W 080°07'0 0.0
2015-Aug-22 19:31N 26°04' W 080°07'0 0.0
2015-Aug-22 18:31N 26°04' W 080°07'0 0.0
2015-Aug-22 17:33N 26°04' W 080°07'0 0.0
2015-Aug-22 16:33N 26°04' W 080°07'0 0.0
2015-Aug-22 15:32N 26°04' W 080°07'0 0.0
2015-Aug-22 14:32N 26°04' W 080°07'0 0.0
2015-Aug-22 13:31N 26°04' W 080°07'0 0.0
2015-Aug-22 12:31N 26°04' W 080°07'0 0.0
2015-Aug-22 11:31N 26°04' W 080°07'0 0.0
2015-Aug-22 10:33N 26°04' W 080°07'0 0.0
2015-Aug-22 09:34N 26°04' W 080°07'2 1.7
2015-Aug-22 08:33N 26°06' W 080°07'1212.2
2015-Aug-22 07:33N 25°59' W 079°55'1414.1
2015-Aug-22 06:33N 25°48' W 079°46'1515.1
2015-Aug-22 05:33N 25°33' W 079°41'  
Track history (hours):
 
Tides and Currents Weather Stations Pressure Air Temp Water Temp Dewpoint Dewpoint Depression Visibility Wind Speed Wind Dir Waves Ship Positions

K-storm

Last reported at 2015-Aug-30 03:32 UTC. Time now 2015-Aug-30 12:01 UTC.
Position N 25°27' W 079°40'.

Length 139 m; draft 6.3 m.

Type: Ship. MMSI: 305350000.

Date/timePositionNaut miles runAvg speedWind from/ knotsBaromVisibWave heightAir tempDewpointWater temp
2015-Aug-30 03:32N 25°27' W 079°40'1313.2
2015-Aug-30 02:33N 25°40' W 079°42'1211.8
2015-Aug-30 01:33N 25°51' W 079°48'1212.0
2015-Aug-30 00:33N 25°59' W 079°57'1010.4
2015-Aug-29 23:33N 26°05' W 080°07'1 1.3
2015-Aug-29 22:28N 26°04' W 080°07'0 0.0
2015-Aug-29 21:31N 26°04' W 080°07'0 0.0
2015-Aug-29 20:31N 26°04' W 080°07'0 0.0
2015-Aug-29 19:30N 26°04' W 080°07'0 0.0
2015-Aug-29 18:33N 26°04' W 080°07'0 0.0
2015-Aug-29 17:32N 26°04' W 080°07'0 0.0
2015-Aug-29 16:32N 26°04' W 080°07'0 0.0
2015-Aug-29 15:31N 26°04' W 080°07'0 0.0
2015-Aug-29 14:31N 26°04' W 080°07'0 0.0
2015-Aug-29 13:31N 26°04' W 080°07'0 0.0
2015-Aug-29 12:33N 26°04' W 080°07'0 0.0
2015-Aug-29 11:33N 26°04' W 080°07'0 0.0
2015-Aug-29 10:32N 26°04' W 080°07'0 0.0
2015-Aug-29 09:32N 26°04' W 080°07'0 0.3
2015-Aug-29 08:34N 26°04' W 080°07'6 5.8
2015-Aug-29 07:34N 26°03' W 080°01'1716.9
2015-Aug-29 06:34N 25°50' W 079°48'1616.3
2015-Aug-29 05:34N 25°35' W 079°41'  
2015-Aug-23 08:34N 25°27' W 079°40'1414.1
2015-Aug-23 07:33N 25°41' W 079°42'1212.5
2015-Aug-23 06:33N 25°51' W 079°50'1313.0
2015-Aug-23 05:33N 26°01' W 080°00'7 7.3
2015-Aug-23 04:33N 26°05' W 080°07'1 1.0
2015-Aug-23 03:32N 26°04' W 080°07'0 0.0
2015-Aug-23 02:31N 26°04' W 080°07'0 0.0
2015-Aug-23 01:31N 26°04' W 080°07'0 0.0
2015-Aug-23 00:33N 26°04' W 080°07'0 0.0
2015-Aug-22 23:30N 26°04' W 080°07'0 0.0
2015-Aug-22 22:32N 26°04' W 080°07'0 0.0
2015-Aug-22 21:32N 26°04' W 080°07'0 0.0
2015-Aug-22 20:32N 26°04' W 080°07'0 0.0
2015-Aug-22 19:31N 26°04' W 080°07'0 0.0
2015-Aug-22 18:31N 26°04' W 080°07'0 0.0
2015-Aug-22 17:33N 26°04' W 080°07'0 0.0
2015-Aug-22 16:33N 26°04' W 080°07'0 0.0
2015-Aug-22 15:32N 26°04' W 080°07'0 0.0
2015-Aug-22 14:32N 26°04' W 080°07'0 0.0
2015-Aug-22 13:31N 26°04' W 080°07'0 0.0
2015-Aug-22 12:31N 26°04' W 080°07'0 0.0
2015-Aug-22 11:31N 26°04' W 080°07'0 0.0
2015-Aug-22 10:33N 26°04' W 080°07'0 0.0
2015-Aug-22 09:34N 26°04' W 080°07'2 1.7
2015-Aug-22 08:33N 26°06' W 080°07'1212.2
2015-Aug-22 07:33N 25°59' W 079°55'1414.1
2015-Aug-22 06:33N 25°48' W 079°46'1515.1
2015-Aug-22 05:33N 25°33' W 079°41'  

Dump ship's entire track history